sensor_id;sensor_type;location;lat;lon;timestamp;pressure;altitude;pressure_sealevel;temperature;humidity
65872;BME280;52653;50.080;21.992;2024-03-08T00:01:07;99832.66;;;-0.56;83.38
65872;BME280;52653;50.080;21.992;2024-03-08T00:03:48;99831.68;;;-0.66;83.70
65872;BME280;52653;50.080;21.992;2024-03-08T00:06:20;99830.42;;;-0.78;83.89
65872;BME280;52653;50.080;21.992;2024-03-08T00:08:52;99824.92;;;-0.89;84.13
65872;BME280;52653;50.080;21.992;2024-03-08T00:11:25;99823.70;;;-1.00;84.24
65872;BME280;52653;50.080;21.992;2024-03-08T00:13:58;99825.69;;;-1.12;84.67
65872;BME280;52653;50.080;21.992;2024-03-08T00:16:30;99823.57;;;-1.24;84.90
65872;BME280;52653;50.080;21.992;2024-03-08T00:19:02;99823.06;;;-1.34;85.03
65872;BME280;52653;50.080;21.992;2024-03-08T00:21:35;99824.35;;;-1.43;85.27
65872;BME280;52653;50.080;21.992;2024-03-08T00:24:07;99819.90;;;-1.53;85.50
65872;BME280;52653;50.080;21.992;2024-03-08T00:26:40;99821.52;;;-1.62;85.89
65872;BME280;52653;50.080;21.992;2024-03-08T00:29:13;99823.00;;;-1.70;86.10
65872;BME280;52653;50.080;21.992;2024-03-08T00:31:45;99823.60;;;-1.78;86.43
65872;BME280;52653;50.080;21.992;2024-03-08T00:34:17;99822.17;;;-1.86;86.80
65872;BME280;52653;50.080;21.992;2024-03-08T00:36:50;99819.90;;;-1.93;86.86
65872;BME280;52653;50.080;21.992;2024-03-08T00:39:22;99817.86;;;-2.00;87.26
65872;BME280;52653;50.080;21.992;2024-03-08T00:41:57;99820.27;;;-2.06;87.60
65872;BME280;52653;50.080;21.992;2024-03-08T00:44:30;99816.70;;;-2.12;87.83
65872;BME280;52653;50.080;21.992;2024-03-08T00:47:03;99813.08;;;-2.19;88.17
65872;BME280;52653;50.080;21.992;2024-03-08T00:49:35;99812.81;;;-2.24;88.42
65872;BME280;52653;50.080;21.992;2024-03-08T00:52:09;99815.27;;;-2.29;88.64
65872;BME280;52653;50.080;21.992;2024-03-08T00:54:41;99812.61;;;-2.34;88.92
65872;BME280;52653;50.080;21.992;2024-03-08T00:57:14;99812.92;;;-2.38;89.19
65872;BME280;52653;50.080;21.992;2024-03-08T00:59:47;99810.52;;;-2.42;89.60
65872;BME280;52653;50.080;21.992;2024-03-08T01:02:20;99811.70;;;-2.45;89.77
65872;BME280;52653;50.080;21.992;2024-03-08T01:04:54;99811.02;;;-2.48;89.96
65872;BME280;52653;50.080;21.992;2024-03-08T01:07:26;99808.95;;;-2.52;90.28
65872;BME280;52653;50.080;21.992;2024-03-08T01:09:58;99807.40;;;-2.54;90.48
65872;BME280;52653;50.080;21.992;2024-03-08T01:12:31;99808.30;;;-2.57;90.68
65872;BME280;52653;50.080;21.992;2024-03-08T01:15:04;99804.35;;;-2.60;90.71
65872;BME280;52653;50.080;21.992;2024-03-08T01:17:37;99804.91;;;-2.63;90.95
65872;BME280;52653;50.080;21.992;2024-03-08T01:20:11;99803.23;;;-2.65;91.06
65872;BME280;52653;50.080;21.992;2024-03-08T01:22:46;99802.20;;;-2.68;91.20
65872;BME280;52653;50.080;21.992;2024-03-08T01:25:19;99800.36;;;-2.71;91.37
65872;BME280;52653;50.080;21.992;2024-03-08T01:27:51;99793.89;;;-2.73;91.65
65872;BME280;52653;50.080;21.992;2024-03-08T01:30:24;99798.40;;;-2.75;91.63
65872;BME280;52653;50.080;21.992;2024-03-08T01:32:57;99795.36;;;-2.77;91.82
65872;BME280;52653;50.080;21.992;2024-03-08T01:35:29;99793.31;;;-2.80;91.72
65872;BME280;52653;50.080;21.992;2024-03-08T01:38:02;99790.38;;;-2.83;91.80
65872;BME280;52653;50.080;21.992;2024-03-08T01:40:36;99788.70;;;-2.86;91.87
65872;BME280;52653;50.080;21.992;2024-03-08T01:43:19;99783.59;;;-2.88;92.26
65872;BME280;52653;50.080;21.992;2024-03-08T01:45:52;99785.77;;;-2.90;92.30
65872;BME280;52653;50.080;21.992;2024-03-08T01:48:25;99785.02;;;-2.91;92.41
65872;BME280;52653;50.080;21.992;2024-03-08T01:51:00;99785.94;;;-2.92;92.45
65872;BME280;52653;50.080;21.992;2024-03-08T01:53:32;99785.02;;;-2.94;92.57
65872;BME280;52653;50.080;21.992;2024-03-08T01:56:07;99784.27;;;-2.95;92.69
65872;BME280;52653;50.080;21.992;2024-03-08T01:58:39;99780.77;;;-2.96;92.94
65872;BME280;52653;50.080;21.992;2024-03-08T02:01:13;99780.54;;;-2.97;92.98
65872;BME280;52653;50.080;21.992;2024-03-08T02:03:46;99776.16;;;-2.99;92.99
65872;BME280;52653;50.080;21.992;2024-03-08T02:06:19;99777.29;;;-3.00;93.15
65872;BME280;52653;50.080;21.992;2024-03-08T02:08:51;99777.02;;;-3.03;93.27
65872;BME280;52653;50.080;21.992;2024-03-08T02:11:24;99772.07;;;-3.05;93.26
65872;BME280;52653;50.080;21.992;2024-03-08T02:13:56;99776.89;;;-3.07;93.21
65872;BME280;52653;50.080;21.992;2024-03-08T02:16:29;99769.65;;;-3.08;93.46
65872;BME280;52653;50.080;21.992;2024-03-08T02:19:01;99769.35;;;-3.11;93.41
65872;BME280;52653;50.080;21.992;2024-03-08T02:21:33;99766.69;;;-3.12;93.52
65872;BME280;52653;50.080;21.992;2024-03-08T02:24:07;99766.21;;;-3.14;93.53
65872;BME280;52653;50.080;21.992;2024-03-08T02:26:40;99764.20;;;-3.17;93.63
65872;BME280;52653;50.080;21.992;2024-03-08T02:29:14;99764.82;;;-3.21;93.65
65872;BME280;52653;50.080;21.992;2024-03-08T02:31:46;99764.29;;;-3.24;93.55
65872;BME280;52653;50.080;21.992;2024-03-08T02:34:19;99763.23;;;-3.28;93.60
65872;BME280;52653;50.080;21.992;2024-03-08T02:36:51;99763.33;;;-3.32;93.46
65872;BME280;52653;50.080;21.992;2024-03-08T02:39:24;99761.52;;;-3.37;93.61
65872;BME280;52653;50.080;21.992;2024-03-08T02:41:58;99766.66;;;-3.40;93.64
65872;BME280;52653;50.080;21.992;2024-03-08T02:44:30;99766.23;;;-3.45;93.76
65872;BME280;52653;50.080;21.992;2024-03-08T02:47:04;99768.12;;;-3.48;93.69
65872;BME280;52653;50.080;21.992;2024-03-08T02:49:37;99768.16;;;-3.50;93.96
65872;BME280;52653;50.080;21.992;2024-03-08T02:52:09;99769.95;;;-3.51;94.23
65872;BME280;52653;50.080;21.992;2024-03-08T02:54:41;99769.90;;;-3.52;94.33
65872;BME280;52653;50.080;21.992;2024-03-08T02:57:14;99769.34;;;-3.53;94.51
65872;BME280;52653;50.080;21.992;2024-03-08T02:59:46;99769.14;;;-3.54;94.85
65872;BME280;52653;50.080;21.992;2024-03-08T03:02:19;99768.44;;;-3.54;94.87
65872;BME280;52653;50.080;21.992;2024-03-08T03:04:52;99770.55;;;-3.56;94.77
65872;BME280;52653;50.080;21.992;2024-03-08T03:07:26;99771.33;;;-3.58;94.94
65872;BME280;52653;50.080;21.992;2024-03-08T03:09:59;99769.77;;;-3.58;95.11
65872;BME280;52653;50.080;21.992;2024-03-08T03:12:33;99774.09;;;-3.57;95.39
65872;BME280;52653;50.080;21.992;2024-03-08T03:15:06;99775.02;;;-3.56;95.30
65872;BME280;52653;50.080;21.992;2024-03-08T03:17:39;99775.98;;;-3.54;95.47
65872;BME280;52653;50.080;21.992;2024-03-08T03:20:13;99778.68;;;-3.52;95.73
65872;BME280;52653;50.080;21.992;2024-03-08T03:22:53;99782.41;;;-3.49;95.95
65872;BME280;52653;50.080;21.992;2024-03-08T03:25:28;99782.90;;;-3.47;96.11
65872;BME280;52653;50.080;21.992;2024-03-08T03:28:07;99778.91;;;-3.44;96.29
65872;BME280;52653;50.080;21.992;2024-03-08T03:30:42;99781.02;;;-3.41;96.20
65872;BME280;52653;50.080;21.992;2024-03-08T03:33:14;99778.92;;;-3.39;96.19
65872;BME280;52653;50.080;21.992;2024-03-08T03:35:48;99780.79;;;-3.36;96.15
65872;BME280;52653;50.080;21.992;2024-03-08T03:38:22;99778.50;;;-3.34;96.20
65872;BME280;52653;50.080;21.992;2024-03-08T03:40:56;99781.16;;;-3.32;96.12
65872;BME280;52653;50.080;21.992;2024-03-08T03:43:35;99780.66;;;-3.29;96.25
65872;BME280;52653;50.080;21.992;2024-03-08T03:46:09;99779.27;;;-3.26;96.31
65872;BME280;52653;50.080;21.992;2024-03-08T03:48:41;99781.20;;;-3.22;96.43
65872;BME280;52653;50.080;21.992;2024-03-08T03:51:14;99776.23;;;-3.19;96.55
65872;BME280;52653;50.080;21.992;2024-03-08T03:53:47;99778.67;;;-3.16;96.69
65872;BME280;52653;50.080;21.992;2024-03-08T03:56:19;99770.84;;;-3.12;96.71
65872;BME280;52653;50.080;21.992;2024-03-08T03:58:56;99772.96;;;-3.07;96.80
65872;BME280;52653;50.080;21.992;2024-03-08T04:01:29;99769.59;;;-3.03;96.58
65872;BME280;52653;50.080;21.992;2024-03-08T04:04:02;99766.64;;;-3.01;96.59
65872;BME280;52653;50.080;21.992;2024-03-08T04:06:34;99765.73;;;-2.98;96.54
65872;BME280;52653;50.080;21.992;2024-03-08T04:09:06;99762.05;;;-2.97;96.40
65872;BME280;52653;50.080;21.992;2024-03-08T04:11:39;99762.61;;;-2.95;96.24
65872;BME280;52653;50.080;21.992;2024-03-08T04:14:11;99762.87;;;-2.94;96.35
65872;BME280;52653;50.080;21.992;2024-03-08T04:16:44;99763.23;;;-2.93;96.14
65872;BME280;52653;50.080;21.992;2024-03-08T04:19:17;99758.23;;;-2.93;96.09
65872;BME280;52653;50.080;21.992;2024-03-08T04:21:50;99755.52;;;-2.93;96.08
65872;BME280;52653;50.080;21.992;2024-03-08T04:24:22;99752.70;;;-2.94;95.94
65872;BME280;52653;50.080;21.992;2024-03-08T04:26:54;99751.20;;;-2.97;95.81
65872;BME280;52653;50.080;21.992;2024-03-08T04:29:28;99748.76;;;-3.01;95.54
65872;BME280;52653;50.080;21.992;2024-03-08T04:32:00;99750.52;;;-3.07;95.55
65872;BME280;52653;50.080;21.992;2024-03-08T04:34:34;99752.35;;;-3.14;95.04
65872;BME280;52653;50.080;21.992;2024-03-08T04:37:07;99749.20;;;-3.21;95.07
65872;BME280;52653;50.080;21.992;2024-03-08T04:39:42;99754.40;;;-3.26;95.14
65872;BME280;52653;50.080;21.992;2024-03-08T04:42:16;99759.73;;;-3.32;94.86
65872;BME280;52653;50.080;21.992;2024-03-08T04:44:49;99758.92;;;-3.37;95.00
65872;BME280;52653;50.080;21.992;2024-03-08T04:47:22;99761.39;;;-3.42;95.22
65872;BME280;52653;50.080;21.992;2024-03-08T04:49:57;99761.30;;;-3.47;95.23
65872;BME280;52653;50.080;21.992;2024-03-08T04:52:29;99761.24;;;-3.51;95.30
65872;BME280;52653;50.080;21.992;2024-03-08T04:55:02;99764.23;;;-3.56;95.15
65872;BME280;52653;50.080;21.992;2024-03-08T04:57:36;99766.54;;;-3.60;95.44
65872;BME280;52653;50.080;21.992;2024-03-08T05:00:10;99763.49;;;-3.63;95.64
65872;BME280;52653;50.080;21.992;2024-03-08T05:02:43;99762.82;;;-3.66;95.83
65872;BME280;52653;50.080;21.992;2024-03-08T05:05:15;99766.64;;;-3.68;95.64
65872;BME280;52653;50.080;21.992;2024-03-08T05:07:48;99763.94;;;-3.70;95.86
65872;BME280;52653;50.080;21.992;2024-03-08T05:10:20;99766.73;;;-3.72;95.68
65872;BME280;52653;50.080;21.992;2024-03-08T05:12:53;99768.83;;;-3.74;95.68
65872;BME280;52653;50.080;21.992;2024-03-08T05:15:27;99771.48;;;-3.76;95.76
65872;BME280;52653;50.080;21.992;2024-03-08T05:18:00;99775.23;;;-3.76;95.91
65872;BME280;52653;50.080;21.992;2024-03-08T05:20:32;99778.86;;;-3.76;95.97
65872;BME280;52653;50.080;21.992;2024-03-08T05:23:06;99779.62;;;-3.74;96.32
65872;BME280;52653;50.080;21.992;2024-03-08T05:25:39;99777.34;;;-3.72;96.17
65872;BME280;52653;50.080;21.992;2024-03-08T05:28:12;99780.89;;;-3.70;96.30
65872;BME280;52653;50.080;21.992;2024-03-08T05:30:45;99782.83;;;-3.67;96.44
65872;BME280;52653;50.080;21.992;2024-03-08T05:33:18;99782.56;;;-3.62;96.35
65872;BME280;52653;50.080;21.992;2024-03-08T05:35:50;99783.00;;;-3.57;96.72
65872;BME280;52653;50.080;21.992;2024-03-08T05:38:23;99787.42;;;-3.52;96.59
65872;BME280;52653;50.080;21.992;2024-03-08T05:40:56;99789.89;;;-3.48;96.72
65872;BME280;52653;50.080;21.992;2024-03-08T05:43:28;99794.73;;;-3.41;96.65
65872;BME280;52653;50.080;21.992;2024-03-08T05:46:01;99799.11;;;-3.33;96.76
65872;BME280;52653;50.080;21.992;2024-03-08T05:48:35;99799.08;;;-3.25;97.14
65872;BME280;52653;50.080;21.992;2024-03-08T05:51:09;99798.94;;;-3.15;96.94
65872;BME280;52653;50.080;21.992;2024-03-08T05:53:41;99800.95;;;-3.04;97.05
65872;BME280;52653;50.080;21.992;2024-03-08T05:56:14;99798.97;;;-2.93;96.96
65872;BME280;52653;50.080;21.992;2024-03-08T05:58:47;99796.71;;;-2.81;96.91
65872;BME280;52653;50.080;21.992;2024-03-08T06:01:21;99793.30;;;-2.68;96.66
65872;BME280;52653;50.080;21.992;2024-03-08T06:03:53;99792.08;;;-2.55;96.75
65872;BME280;52653;50.080;21.992;2024-03-08T06:06:27;99789.05;;;-2.42;96.73
65872;BME280;52653;50.080;21.992;2024-03-08T06:08:59;99785.73;;;-2.29;96.50
65872;BME280;52653;50.080;21.992;2024-03-08T06:11:39;99790.64;;;-2.21;95.77
65872;BME280;52653;50.080;21.992;2024-03-08T06:14:12;99793.45;;;-2.13;95.38
65872;BME280;52653;50.080;21.992;2024-03-08T06:16:49;99791.40;;;-2.06;95.02
65872;BME280;52653;50.080;21.992;2024-03-08T06:19:22;99792.17;;;-1.98;94.82
65872;BME280;52653;50.080;21.992;2024-03-08T06:21:54;99787.47;;;-1.89;94.71
65872;BME280;52653;50.080;21.992;2024-03-08T06:24:26;99786.77;;;-1.79;94.65
65872;BME280;52653;50.080;21.992;2024-03-08T06:26:59;99787.42;;;-1.69;94.47
65872;BME280;52653;50.080;21.992;2024-03-08T06:29:31;99787.95;;;-1.59;94.23
65872;BME280;52653;50.080;21.992;2024-03-08T06:32:04;99787.41;;;-1.49;93.90
65872;BME280;52653;50.080;21.992;2024-03-08T06:34:37;99794.11;;;-1.39;93.75
65872;BME280;52653;50.080;21.992;2024-03-08T06:37:10;99793.98;;;-1.30;93.46
65872;BME280;52653;50.080;21.992;2024-03-08T06:39:42;99794.23;;;-1.22;93.36
65872;BME280;52653;50.080;21.992;2024-03-08T06:42:15;99793.20;;;-1.11;93.27
65872;BME280;52653;50.080;21.992;2024-03-08T06:44:48;99792.91;;;-0.99;93.25
65872;BME280;52653;50.080;21.992;2024-03-08T06:47:22;99792.63;;;-0.87;93.14
65872;BME280;52653;50.080;21.992;2024-03-08T06:49:56;99790.45;;;-0.75;92.88
65872;BME280;52653;50.080;21.992;2024-03-08T06:52:29;99789.23;;;-0.64;92.22
65872;BME280;52653;50.080;21.992;2024-03-08T06:55:01;99784.42;;;-0.52;92.10
65872;BME280;52653;50.080;21.992;2024-03-08T06:57:36;99788.02;;;-0.41;91.82
65872;BME280;52653;50.080;21.992;2024-03-08T07:00:11;99780.58;;;-0.30;91.57
65872;BME280;52653;50.080;21.992;2024-03-08T07:02:49;99788.98;;;-0.20;91.51
65872;BME280;52653;50.080;21.992;2024-03-08T07:05:24;99790.23;;;-0.11;90.90
65872;BME280;52653;50.080;21.992;2024-03-08T07:08:01;99791.91;;;-0.04;90.43
65872;BME280;52653;50.080;21.992;2024-03-08T07:10:34;99790.44;;;0.05;90.18
65872;BME280;52653;50.080;21.992;2024-03-08T07:13:08;99789.88;;;0.20;90.37
65872;BME280;52653;50.080;21.992;2024-03-08T07:15:40;99790.02;;;0.36;89.94
65872;BME280;52653;50.080;21.992;2024-03-08T07:18:13;99795.23;;;0.49;89.17
65872;BME280;52653;50.080;21.992;2024-03-08T07:20:46;99793.49;;;0.57;88.72
65872;BME280;52653;50.080;21.992;2024-03-08T07:23:21;99793.09;;;0.69;88.38
65872;BME280;52653;50.080;21.992;2024-03-08T07:26:07;99787.65;;;0.79;88.02
65872;BME280;52653;50.080;21.992;2024-03-08T07:28:40;99783.19;;;0.93;87.70
65872;BME280;52653;50.080;21.992;2024-03-08T07:31:12;99782.21;;;1.03;86.91
65872;BME280;52653;50.080;21.992;2024-03-08T07:33:52;99783.60;;;1.16;86.69
65872;BME280;52653;50.080;21.992;2024-03-08T07:36:27;99780.46;;;1.29;86.08
65872;BME280;52653;50.080;21.992;2024-03-08T07:38:59;99779.90;;;1.41;85.83
65872;BME280;52653;50.080;21.992;2024-03-08T07:41:32;99779.80;;;1.57;85.74
65872;BME280;52653;50.080;21.992;2024-03-08T07:44:07;99777.61;;;1.73;85.22
65872;BME280;52653;50.080;21.992;2024-03-08T07:46:39;99776.35;;;1.86;85.03
65872;BME280;52653;50.080;21.992;2024-03-08T07:49:15;99775.98;;;1.99;84.66
65872;BME280;52653;50.080;21.992;2024-03-08T07:51:47;99778.50;;;2.12;83.90
65872;BME280;52653;50.080;21.992;2024-03-08T07:54:20;99776.16;;;2.19;82.76
65872;BME280;52653;50.080;21.992;2024-03-08T07:56:52;99777.27;;;2.26;82.20
65872;BME280;52653;50.080;21.992;2024-03-08T07:59:24;99775.30;;;2.35;81.97
65872;BME280;52653;50.080;21.992;2024-03-08T08:01:56;99776.59;;;2.48;82.05
65872;BME280;52653;50.080;21.992;2024-03-08T08:04:30;99778.58;;;2.60;81.10
65872;BME280;52653;50.080;21.992;2024-03-08T08:07:03;99780.02;;;2.72;81.11
65872;BME280;52653;50.080;21.992;2024-03-08T08:09:35;99779.38;;;2.84;80.99
65872;BME280;52653;50.080;21.992;2024-03-08T08:12:09;99780.00;;;2.98;80.66
65872;BME280;52653;50.080;21.992;2024-03-08T08:14:43;99778.43;;;3.15;80.43
65872;BME280;52653;50.080;21.992;2024-03-08T08:17:15;99776.77;;;3.28;79.57
65872;BME280;52653;50.080;21.992;2024-03-08T08:19:47;99776.82;;;3.35;78.47
65872;BME280;52653;50.080;21.992;2024-03-08T08:22:20;99780.50;;;3.48;78.78
65872;BME280;52653;50.080;21.992;2024-03-08T08:24:52;99778.20;;;3.65;77.95
65872;BME280;52653;50.080;21.992;2024-03-08T08:27:24;99777.77;;;3.80;77.36
65872;BME280;52653;50.080;21.992;2024-03-08T08:29:57;99773.09;;;3.92;76.72
65872;BME280;52653;50.080;21.992;2024-03-08T08:32:29;99776.15;;;4.02;75.79
65872;BME280;52653;50.080;21.992;2024-03-08T08:35:01;99777.09;;;4.11;75.41
65872;BME280;52653;50.080;21.992;2024-03-08T08:37:35;99775.94;;;4.27;75.53
65872;BME280;52653;50.080;21.992;2024-03-08T08:40:09;99774.24;;;4.41;74.80
65872;BME280;52653;50.080;21.992;2024-03-08T08:42:46;99769.52;;;4.54;73.71
65872;BME280;52653;50.080;21.992;2024-03-08T08:45:20;99767.63;;;4.62;73.51
65872;BME280;52653;50.080;21.992;2024-03-08T08:47:56;99770.54;;;4.73;73.11
65872;BME280;52653;50.080;21.992;2024-03-08T08:50:30;99762.48;;;4.85;73.01
65872;BME280;52653;50.080;21.992;2024-03-08T08:53:03;99764.73;;;4.92;72.21
65872;BME280;52653;50.080;21.992;2024-03-08T08:55:38;99761.35;;;5.03;72.69
65872;BME280;52653;50.080;21.992;2024-03-08T08:58:11;99758.81;;;5.15;71.18
65872;BME280;52653;50.080;21.992;2024-03-08T09:00:47;99761.30;;;5.24;71.11
65872;BME280;52653;50.080;21.992;2024-03-08T09:03:21;99757.48;;;5.32;69.28
65872;BME280;52653;50.080;21.992;2024-03-08T09:05:54;99761.09;;;5.38;68.76
65872;BME280;52653;50.080;21.992;2024-03-08T09:08:27;99761.08;;;5.46;68.59
65872;BME280;52653;50.080;21.992;2024-03-08T09:11:03;99756.16;;;5.59;68.29
65872;BME280;52653;50.080;21.992;2024-03-08T09:13:36;99754.85;;;5.72;67.66
65872;BME280;52653;50.080;21.992;2024-03-08T09:16:08;99753.10;;;5.88;67.76
65872;BME280;52653;50.080;21.992;2024-03-08T09:18:41;99752.70;;;6.02;67.10
65872;BME280;52653;50.080;21.992;2024-03-08T09:21:15;99753.48;;;6.08;66.12
65872;BME280;52653;50.080;21.992;2024-03-08T09:23:47;99749.33;;;6.08;65.57
65872;BME280;52653;50.080;21.992;2024-03-08T09:26:20;99747.35;;;6.05;64.02
65872;BME280;52653;50.080;21.992;2024-03-08T09:28:59;99748.21;;;5.96;63.19
65872;BME280;52653;50.080;21.992;2024-03-08T09:31:32;99745.33;;;5.90;63.15
65872;BME280;52653;50.080;21.992;2024-03-08T09:34:04;99747.26;;;5.91;63.25
65872;BME280;52653;50.080;21.992;2024-03-08T09:36:40;99741.77;;;5.87;62.41
65872;BME280;52653;50.080;21.992;2024-03-08T09:39:13;99739.21;;;5.82;62.51
65872;BME280;52653;50.080;21.992;2024-03-08T09:41:48;99740.29;;;5.84;62.57
65872;BME280;52653;50.080;21.992;2024-03-08T09:44:20;99737.88;;;5.84;62.57
65872;BME280;52653;50.080;21.992;2024-03-08T09:46:54;99737.22;;;5.86;62.09
65872;BME280;52653;50.080;21.992;2024-03-08T09:49:29;99736.30;;;5.92;63.09
65872;BME280;52653;50.080;21.992;2024-03-08T09:52:01;99736.33;;;5.93;62.96
65872;BME280;52653;50.080;21.992;2024-03-08T09:54:36;99741.31;;;5.99;63.10
65872;BME280;52653;50.080;21.992;2024-03-08T09:57:08;99739.36;;;6.06;62.36
65872;BME280;52653;50.080;21.992;2024-03-08T09:59:41;99737.27;;;6.25;62.40
65872;BME280;52653;50.080;21.992;2024-03-08T10:02:19;99735.19;;;6.44;62.13
65872;BME280;52653;50.080;21.992;2024-03-08T10:04:52;99735.19;;;6.56;61.82
65872;BME280;52653;50.080;21.992;2024-03-08T10:07:25;99734.69;;;6.67;61.26
65872;BME280;52653;50.080;21.992;2024-03-08T10:09:57;99735.68;;;6.64;60.42
65872;BME280;52653;50.080;21.992;2024-03-08T10:12:30;99739.99;;;6.51;60.19
65872;BME280;52653;50.080;21.992;2024-03-08T10:15:02;99739.65;;;6.41;61.17
65872;BME280;52653;50.080;21.992;2024-03-08T10:17:35;99737.07;;;6.33;60.68
65872;BME280;52653;50.080;21.992;2024-03-08T10:20:16;99735.64;;;6.22;60.66
65872;BME280;52653;50.080;21.992;2024-03-08T10:22:49;99736.67;;;6.02;60.33
65872;BME280;52653;50.080;21.992;2024-03-08T10:25:35;99735.05;;;5.83;61.64
65872;BME280;52653;50.080;21.992;2024-03-08T10:28:08;99734.97;;;5.79;61.73
65872;BME280;52653;50.080;21.992;2024-03-08T10:30:46;99730.23;;;5.76;61.53
65872;BME280;52653;50.080;21.992;2024-03-08T10:33:18;99732.79;;;5.73;61.68
65872;BME280;52653;50.080;21.992;2024-03-08T10:35:51;99733.41;;;5.79;61.89
65872;BME280;52653;50.080;21.992;2024-03-08T10:38:26;99732.88;;;5.87;61.70
65872;BME280;52653;50.080;21.992;2024-03-08T10:41:05;99732.92;;;5.89;60.15
65872;BME280;52653;50.080;21.992;2024-03-08T10:47:00;99726.73;;;6.01;61.41
65872;BME280;52653;50.080;21.992;2024-03-08T10:49:41;99724.36;;;6.14;61.02
65872;BME280;52653;50.080;21.992;2024-03-08T10:52:18;99722.35;;;6.19;60.25
65872;BME280;52653;50.080;21.992;2024-03-08T10:54:51;99722.75;;;6.21;60.22
65872;BME280;52653;50.080;21.992;2024-03-08T10:57:25;99717.98;;;6.18;59.90
65872;BME280;52653;50.080;21.992;2024-03-08T10:59:59;99714.83;;;6.07;60.10
65872;BME280;52653;50.080;21.992;2024-03-08T11:02:31;99714.34;;;5.91;60.41
65872;BME280;52653;50.080;21.992;2024-03-08T11:05:04;99712.02;;;5.62;60.92
65872;BME280;52653;50.080;21.992;2024-03-08T11:07:41;99709.23;;;5.37;61.49
65872;BME280;52653;50.080;21.992;2024-03-08T11:10:22;99700.90;;;5.21;62.25
65872;BME280;52653;50.080;21.992;2024-03-08T11:12:54;99699.92;;;5.17;63.24
65872;BME280;52653;50.080;21.992;2024-03-08T11:15:27;99696.15;;;5.11;63.53
65872;BME280;52653;50.080;21.992;2024-03-08T11:18:01;99691.63;;;5.11;63.50
65872;BME280;52653;50.080;21.992;2024-03-08T11:20:38;99689.61;;;5.22;63.91
65872;BME280;52653;50.080;21.992;2024-03-08T11:23:10;99687.30;;;5.27;62.79
65872;BME280;52653;50.080;21.992;2024-03-08T11:25:43;99687.50;;;5.38;63.26
65872;BME280;52653;50.080;21.992;2024-03-08T11:28:19;99683.80;;;5.52;62.72
65872;BME280;52653;50.080;21.992;2024-03-08T11:31:23;99684.98;;;5.68;63.53
65872;BME280;52653;50.080;21.992;2024-03-08T11:33:56;99684.05;;;5.74;61.34
65872;BME280;52653;50.080;21.992;2024-03-08T11:36:30;99683.05;;;5.67;60.81
65872;BME280;52653;50.080;21.992;2024-03-08T11:39:07;99680.52;;;5.71;61.37
65872;BME280;52653;50.080;21.992;2024-03-08T11:41:45;99675.11;;;5.80;61.94
65872;BME280;52653;50.080;21.992;2024-03-08T11:44:18;99672.22;;;5.92;61.16
65872;BME280;52653;50.080;21.992;2024-03-08T11:46:51;99671.84;;;5.99;61.45
65872;BME280;52653;50.080;21.992;2024-03-08T11:49:24;99667.63;;;6.06;61.29
65872;BME280;52653;50.080;21.992;2024-03-08T11:51:57;99663.94;;;6.15;61.51
65872;BME280;52653;50.080;21.992;2024-03-08T11:54:29;99659.79;;;6.27;61.39
65872;BME280;52653;50.080;21.992;2024-03-08T11:57:02;99659.81;;;6.49;61.02
65872;BME280;52653;50.080;21.992;2024-03-08T11:59:34;99660.44;;;6.68;60.17
65872;BME280;52653;50.080;21.992;2024-03-08T12:02:07;99656.05;;;6.76;59.30
65872;BME280;52653;50.080;21.992;2024-03-08T12:04:41;99657.85;;;6.80;59.25
65872;BME280;52653;50.080;21.992;2024-03-08T12:07:13;99650.44;;;6.74;58.60
65872;BME280;52653;50.080;21.992;2024-03-08T12:10:19;99651.54;;;6.66;58.40
65872;BME280;52653;50.080;21.992;2024-03-08T12:12:54;99648.22;;;6.55;59.10
65872;BME280;52653;50.080;21.992;2024-03-08T12:15:27;99638.48;;;6.57;59.91
65872;BME280;52653;50.080;21.992;2024-03-08T12:18:00;99642.20;;;6.60;59.63
65872;BME280;52653;50.080;21.992;2024-03-08T12:20:33;99635.58;;;6.60;60.02
65872;BME280;52653;50.080;21.992;2024-03-08T12:23:05;99633.25;;;6.67;60.45
65872;BME280;52653;50.080;21.992;2024-03-08T12:25:38;99631.89;;;6.70;59.79
65872;BME280;52653;50.080;21.992;2024-03-08T12:28:12;99631.66;;;6.66;59.05
65872;BME280;52653;50.080;21.992;2024-03-08T12:30:49;99629.92;;;6.55;59.01
65872;BME280;52653;50.080;21.992;2024-03-08T12:33:22;99625.80;;;6.46;59.50
65872;BME280;52653;50.080;21.992;2024-03-08T12:35:55;99623.95;;;6.29;59.98
65872;BME280;52653;50.080;21.992;2024-03-08T12:38:30;99618.90;;;6.18;60.69
65872;BME280;52653;50.080;21.992;2024-03-08T12:41:03;99615.86;;;6.03;60.67
65872;BME280;52653;50.080;21.992;2024-03-08T12:43:36;99613.81;;;5.97;61.58
65872;BME280;52653;50.080;21.992;2024-03-08T12:46:08;99613.81;;;5.96;61.61
65872;BME280;52653;50.080;21.992;2024-03-08T12:48:40;99608.81;;;5.98;61.46
65872;BME280;52653;50.080;21.992;2024-03-08T12:51:17;99608.64;;;5.98;60.48
65872;BME280;52653;50.080;21.992;2024-03-08T12:53:49;99605.95;;;5.94;60.25
65872;BME280;52653;50.080;21.992;2024-03-08T12:56:32;99608.52;;;6.02;61.43
65872;BME280;52653;50.080;21.992;2024-03-08T12:59:08;99606.66;;;6.06;60.02
65872;BME280;52653;50.080;21.992;2024-03-08T13:01:41;99603.99;;;6.01;59.34
65872;BME280;52653;50.080;21.992;2024-03-08T13:04:13;99602.30;;;6.04;60.32
65872;BME280;52653;50.080;21.992;2024-03-08T13:06:46;99597.94;;;6.04;60.24
65872;BME280;52653;50.080;21.992;2024-03-08T13:09:25;99592.21;;;6.05;60.62
65872;BME280;52653;50.080;21.992;2024-03-08T13:11:58;99591.21;;;6.08;60.46
65872;BME280;52653;50.080;21.992;2024-03-08T13:14:31;99590.23;;;6.11;60.02
65872;BME280;52653;50.080;21.992;2024-03-08T13:17:06;99590.22;;;6.11;59.09
65872;BME280;52653;50.080;21.992;2024-03-08T13:19:41;99589.26;;;6.06;58.28
65872;BME280;52653;50.080;21.992;2024-03-08T13:22:14;99586.98;;;6.05;58.94
65872;BME280;52653;50.080;21.992;2024-03-08T13:24:47;99586.05;;;6.11;60.15
65872;BME280;52653;50.080;21.992;2024-03-08T13:27:24;99588.27;;;6.20;60.33
65872;BME280;52653;50.080;21.992;2024-03-08T13:29:56;99584.41;;;6.29;59.78
65872;BME280;52653;50.080;21.992;2024-03-08T13:32:28;99579.05;;;6.33;59.05